createdAt,value
2023-03-23T15:58:43.163Z,38.29
2023-03-23T16:01:19.020Z,38.00
2023-03-23T16:04:01.775Z,38.17
2023-03-23T16:06:32.821Z,38.65
2023-03-23T16:10:25.026Z,38.99
2023-03-23T16:12:53.956Z,39.00
2023-03-23T16:15:22.862Z,39.19
2023-03-23T16:17:51.586Z,39.62
2023-03-23T16:20:23.968Z,39.86
2023-03-23T16:22:53.225Z,40.43
2023-03-23T16:25:22.574Z,40.73
2023-03-23T16:27:52.659Z,40.91
2023-03-23T16:30:26.153Z,41.27
2023-03-23T16:32:57.690Z,41.50
2023-03-23T16:35:26.610Z,41.72
2023-03-23T16:38:07.307Z,41.77
2023-03-23T16:40:38.311Z,42.02
2023-03-23T16:43:08.622Z,42.01
2023-03-23T16:45:43.266Z,42.15
2023-03-23T16:48:15.108Z,42.34
2023-03-23T16:50:44.807Z,42.46
2023-03-23T16:53:13.737Z,42.69
2023-03-23T16:55:48.314Z,42.56
2023-03-23T16:58:18.336Z,42.76
2023-03-23T17:00:52.376Z,42.99
2023-03-23T17:03:22.437Z,43.22
2023-03-23T17:05:52.484Z,43.30
2023-03-23T17:08:21.953Z,43.35
2023-03-23T17:10:50.769Z,43.41
2023-03-23T17:13:19.627Z,43.32
2023-03-23T17:15:52.554Z,43.46
2023-03-23T17:18:21.684Z,43.35
2023-03-23T17:20:53.032Z,43.41
2023-03-23T17:23:22.230Z,43.58
2023-03-23T17:25:51.381Z,43.78
2023-03-23T17:28:21.013Z,43.80
2023-03-23T17:30:52.066Z,43.92
2023-03-23T17:33:20.987Z,44.13
2023-03-23T17:35:52.127Z,43.93
2023-03-23T17:38:21.238Z,43.80
2023-03-23T17:41:00.534Z,43.93
2023-03-23T17:43:29.102Z,44.02
2023-03-23T17:45:58.145Z,44.16
2023-03-23T17:48:27.188Z,44.22
2023-03-23T17:50:58.693Z,44.32
2023-03-23T17:53:27.469Z,44.33
2023-03-23T17:55:58.057Z,44.53
2023-03-23T17:58:27.191Z,44.53
2023-03-23T18:00:56.810Z,44.73
2023-03-23T18:03:26.113Z,44.86
2023-03-23T18:06:04.279Z,45.00
2023-03-23T18:08:33.053Z,44.98
2023-03-23T18:11:02.471Z,45.21
2023-03-23T18:13:33.005Z,45.25
2023-03-23T18:16:03.574Z,45.29
2023-03-23T18:18:32.734Z,45.21
2023-03-23T18:21:08.866Z,45.23
2023-03-23T18:23:49.473Z,45.39
2023-03-23T18:26:22.261Z,45.29
2023-03-23T18:28:52.419Z,45.38
2023-03-23T18:31:21.698Z,45.32
2023-03-23T18:33:54.270Z,45.52
2023-03-23T18:36:27.504Z,45.67
2023-03-23T18:38:57.819Z,45.95
2023-03-23T18:41:26.829Z,45.73
2023-03-23T18:43:57.744Z,45.97
2023-03-23T18:46:28.010Z,46.09
2023-03-23T18:48:56.648Z,46.12
2023-03-23T18:51:26.406Z,46.32
2023-03-23T18:53:55.057Z,46.54
2023-03-23T18:56:23.917Z,46.55
2023-03-23T18:58:54.051Z,46.43
2023-03-23T19:01:22.828Z,46.41
2023-03-23T19:03:51.497Z,46.45
2023-03-23T19:06:27.651Z,46.63
2023-03-23T19:08:56.907Z,46.96
2023-03-23T19:11:26.387Z,47.09
2023-03-23T19:14:02.272Z,46.98
2023-03-23T19:16:35.926Z,47.12
2023-03-23T19:19:08.497Z,47.21
2023-03-23T19:21:39.774Z,47.18
2023-03-23T19:24:10.468Z,47.36
2023-03-23T19:26:44.233Z,47.39
2023-03-23T19:31:49.273Z,47.77
2023-03-23T19:34:19.019Z,48.05
2023-03-23T19:36:54.421Z,47.86
2023-03-23T19:39:28.217Z,48.28
2023-03-23T19:41:56.897Z,48.35
2023-03-23T19:44:25.942Z,48.46
2023-03-23T19:46:54.894Z,48.45
2023-03-23T19:49:24.572Z,48.81
2023-03-23T19:52:09.118Z,48.95
2023-03-23T19:54:39.912Z,48.94
2023-03-23T19:57:10.771Z,49.32
2023-03-23T19:59:39.507Z,49.44
2023-03-23T20:02:11.331Z,49.69
2023-03-23T20:04:41.211Z,50.05
2023-03-23T20:07:10.240Z,50.09
2023-03-23T20:09:39.138Z,50.60
2023-03-23T20:12:08.054Z,50.68
2023-03-23T20:14:37.488Z,50.69
2023-03-23T20:17:09.944Z,51.32
2023-03-23T20:19:40.268Z,51.51
2023-03-23T20:22:09.405Z,51.62
2023-03-23T20:24:38.405Z,51.73
2023-03-23T20:27:08.168Z,51.92
2023-03-23T20:29:37.016Z,52.11
2023-03-23T20:32:07.105Z,52.39
2023-03-23T20:34:36.528Z,52.50
2023-03-23T20:37:05.031Z,52.78
2023-03-23T20:39:33.832Z,53.25
2023-03-23T20:42:06.067Z,53.32
2023-03-23T20:44:35.735Z,53.28
2023-03-23T20:47:04.705Z,53.50
2023-03-23T20:49:37.314Z,53.93
2023-03-23T20:52:09.134Z,53.89
2023-03-23T20:54:38.412Z,54.05
2023-03-23T20:57:08.449Z,54.29
2023-03-23T20:59:37.216Z,54.20
2023-03-23T21:02:06.209Z,54.24
2023-03-23T21:04:37.451Z,54.63
2023-03-23T21:07:06.513Z,54.60
2023-03-23T21:09:36.149Z,54.81
2023-03-23T21:12:06.544Z,54.91
2023-03-23T21:14:37.463Z,54.91
2023-03-23T21:17:07.733Z,54.94
2023-03-23T21:19:36.802Z,55.33
2023-03-23T21:22:05.544Z,55.53
2023-03-23T21:24:37.702Z,55.39
2023-03-23T21:27:06.712Z,55.47
2023-03-23T21:29:35.458Z,55.74
2023-03-23T21:32:08.213Z,55.68
2023-03-23T21:34:38.502Z,55.62
2023-03-23T21:37:07.003Z,55.61
2023-03-23T21:39:35.529Z,55.60
2023-03-23T21:42:04.993Z,55.73
2023-03-23T21:44:36.835Z,55.70
2023-03-23T21:47:05.455Z,55.75
2023-03-23T21:49:34.226Z,55.89
2023-03-23T21:52:03.933Z,55.80
2023-03-23T21:54:34.467Z,55.58
2023-03-23T21:57:03.056Z,55.80
2023-03-23T21:59:31.805Z,55.70
2023-03-23T22:02:02.430Z,55.81
2023-03-23T22:04:31.332Z,55.72
2023-03-23T22:07:00.089Z,55.79
2023-03-23T22:09:29.077Z,55.93
2023-03-23T22:11:57.854Z,55.87
2023-03-23T22:14:26.779Z,56.07
2023-03-23T22:16:55.852Z,56.02
2023-03-23T22:19:24.604Z,56.26
2023-03-23T22:21:53.320Z,56.21
2023-03-23T22:24:22.116Z,56.19
2023-03-23T22:26:51.608Z,56.60
2023-03-23T22:29:20.233Z,56.72
2023-03-23T22:31:49.465Z,56.94
2023-03-23T22:34:18.835Z,56.47
2023-03-23T22:36:48.041Z,56.40
2023-03-23T22:39:17.031Z,56.61
2023-03-23T22:41:46.368Z,56.57
2023-03-23T22:44:20.769Z,56.20
2023-03-23T22:46:49.604Z,56.42
2023-03-23T22:49:18.487Z,56.06
2023-03-23T22:51:47.451Z,56.03
2023-03-23T22:54:20.660Z,55.96
2023-03-23T22:56:49.607Z,56.16
2023-03-23T22:59:19.767Z,56.20
2023-03-23T23:01:48.618Z,56.05
2023-03-23T23:04:17.670Z,56.41
2023-03-23T23:06:46.392Z,56.45
2023-03-23T23:09:15.750Z,56.60
2023-03-23T23:11:44.489Z,56.67
2023-03-23T23:14:13.233Z,56.80
2023-03-23T23:16:42.573Z,57.48
2023-03-23T23:19:11.602Z,57.12
2023-03-23T23:21:42.707Z,56.92
2023-03-23T23:24:11.744Z,57.33
2023-03-23T23:26:40.541Z,57.26
2023-03-23T23:29:09.658Z,57.54
2023-03-23T23:31:38.735Z,57.76
2023-03-23T23:34:07.433Z,57.50
2023-03-23T23:36:36.162Z,58.24
2023-03-23T23:39:08.540Z,58.36
2023-03-23T23:41:37.605Z,58.59
2023-03-23T23:44:06.509Z,58.48
2023-03-23T23:46:35.211Z,58.60
2023-03-23T23:49:04.636Z,58.44
2023-03-23T23:51:34.306Z,58.83
2023-03-23T23:54:02.896Z,58.87
2023-03-23T23:56:32.542Z,58.89
2023-03-23T23:59:01.446Z,59.07
